createdAt,value
2023-01-17T00:00:00.183Z,98639.64
2023-01-17T00:02:52.848Z,98643.61
2023-01-17T00:05:38.526Z,98634.23
2023-01-17T00:08:24.422Z,98638.61
2023-01-17T00:10:51.587Z,98637.65
2023-01-17T00:13:19.023Z,98636.53
2023-01-17T00:15:46.450Z,98632.73
2023-01-17T00:18:13.537Z,98623.64
2023-01-17T00:20:59.138Z,98625.84
2023-01-17T00:23:44.926Z,98623.48
2023-01-17T00:26:17.108Z,98622.16
2023-01-17T00:28:44.636Z,98616.76
2023-01-17T00:31:13.101Z,98612.11
2023-01-17T00:33:40.168Z,98614.30
2023-01-17T00:36:08.391Z,98613.34
2023-01-17T00:38:36.939Z,98616.60
2023-01-17T00:41:06.137Z,98606.88
2023-01-17T00:43:51.748Z,98608.23
2023-01-17T00:46:37.444Z,98610.83
2023-01-17T00:49:23.397Z,98611.46
2023-01-17T00:52:09.074Z,98609.01
2023-01-17T00:54:55.393Z,98605.36
2023-01-17T00:57:41.068Z,98609.21
2023-01-17T01:00:27.781Z,98603.16
2023-01-17T01:03:13.663Z,98606.79
2023-01-17T01:05:59.578Z,98605.02
2023-01-17T01:08:46.567Z,98603.72
2023-01-17T01:11:34.416Z,98598.63
2023-01-17T01:58:44.158Z,98549.19
2023-01-17T02:01:11.168Z,98547.56
2023-01-17T02:03:38.317Z,98544.25
2023-01-17T02:06:24.367Z,98542.02
2023-01-17T02:08:51.612Z,98542.71
2023-01-17T02:11:18.881Z,98541.89
2023-01-17T02:13:45.808Z,98543.23
2023-01-17T02:16:20.143Z,98540.04
2023-01-17T02:19:02.336Z,98540.00
2023-01-17T02:21:33.582Z,98533.98
2023-01-17T02:24:00.538Z,98528.55
2023-01-17T02:26:30.476Z,98525.49
2023-01-17T02:29:22.490Z,98521.81
2023-01-17T02:31:58.023Z,98520.39
2023-01-17T02:34:25.896Z,98511.98
2023-01-17T02:36:57.962Z,98514.41
2023-01-17T02:39:30.438Z,98508.55
2023-01-17T02:42:03.219Z,98497.84
2023-01-17T02:44:30.189Z,98493.16
2023-01-17T02:46:57.761Z,98488.20
2023-01-17T02:49:27.417Z,98481.50
2023-01-17T02:52:12.821Z,98483.86
2023-01-17T02:55:01.582Z,98482.42
2023-01-17T02:57:37.741Z,98475.10
2023-01-17T03:00:14.415Z,98474.79
2023-01-17T03:02:55.373Z,98476.75
2023-01-17T03:05:41.622Z,98474.52
2023-01-17T03:08:08.540Z,98472.92
2023-01-17T03:10:35.515Z,98472.61
2023-01-17T03:13:02.652Z,98473.04
2023-01-17T03:15:29.584Z,98474.77
2023-01-17T03:17:59.033Z,98469.36
2023-01-17T03:20:26.035Z,98469.29
2023-01-17T03:22:52.923Z,98464.21
2023-01-17T03:25:19.769Z,98463.67
2023-01-17T03:27:46.788Z,98465.02
2023-01-17T03:30:14.137Z,98464.89
2023-01-17T03:32:40.975Z,98458.98
2023-01-17T03:35:08.749Z,98457.02
2023-01-17T03:37:35.816Z,98462.35
2023-01-17T03:40:02.853Z,98458.86
2023-01-17T03:42:29.993Z,98458.81
2023-01-17T03:44:56.944Z,98455.74
2023-01-17T03:47:23.990Z,98457.55
2023-01-17T03:49:51.724Z,98455.98
2023-01-17T03:52:18.805Z,98453.96
2023-01-17T03:54:45.672Z,98448.49
2023-01-17T03:57:12.696Z,98442.27
2023-01-17T03:59:39.643Z,98437.34
2023-01-17T04:02:06.703Z,98437.48
2023-01-17T04:04:34.354Z,98439.02
2023-01-17T04:07:01.173Z,98433.30
2023-01-17T04:09:28.151Z,98429.45
2023-01-17T04:11:55.095Z,98426.39
2023-01-17T04:14:21.954Z,98427.02
2023-01-17T04:16:48.898Z,98428.94
2023-01-17T04:19:15.830Z,98429.23
2023-01-17T04:21:42.677Z,98429.56
2023-01-17T04:24:09.625Z,98428.39
2023-01-17T04:26:36.567Z,98429.09
2023-01-17T04:29:03.687Z,98434.29
2023-01-17T04:31:30.585Z,98432.36
2023-01-17T04:33:57.510Z,98429.11
2023-01-17T04:36:24.464Z,98433.11
2023-01-17T04:38:51.343Z,98431.28
2023-01-17T04:41:18.233Z,98432.80
2023-01-17T04:43:45.197Z,98430.38
2023-01-17T04:46:12.894Z,98434.25
2023-01-17T04:48:40.020Z,98434.58
2023-01-17T04:51:06.956Z,98436.44
2023-01-17T04:53:33.914Z,98433.17
2023-01-17T04:56:00.957Z,98430.20
2023-01-17T04:58:28.009Z,98428.61
2023-01-17T05:00:55.143Z,98427.75
2023-01-17T05:03:23.785Z,98426.95
2023-01-17T05:05:50.691Z,98418.88
2023-01-17T05:08:17.943Z,98419.48
2023-01-17T05:10:46.237Z,98421.88
2023-01-17T05:13:13.471Z,98420.80
2023-01-17T05:15:40.449Z,98421.95
2023-01-17T05:18:08.899Z,98419.38
2023-01-17T05:20:36.702Z,98419.20
2023-01-17T05:23:03.726Z,98414.92
2023-01-17T05:25:31.650Z,98418.07
2023-01-17T05:28:00.412Z,98410.83
2023-01-17T05:30:28.659Z,98412.39
2023-01-17T05:32:56.333Z,98409.12
2023-01-17T05:35:25.414Z,98406.58
2023-01-17T05:37:52.813Z,98408.77
2023-01-17T05:40:21.369Z,98412.29
2023-01-17T05:42:48.934Z,98405.34
2023-01-17T05:45:17.207Z,98407.39
2023-01-17T05:47:48.166Z,98407.48
2023-01-17T05:50:17.846Z,98410.81
2023-01-17T05:52:52.914Z,98412.73
2023-01-17T05:55:20.244Z,98413.05
2023-01-17T05:57:47.154Z,98415.19
2023-01-17T06:00:14.862Z,98414.69
2023-01-17T06:02:41.925Z,98409.55
2023-01-17T06:05:09.882Z,98414.73
2023-01-17T06:07:36.820Z,98416.25
2023-01-17T06:10:04.760Z,98424.06
2023-01-17T06:12:32.360Z,98428.39
2023-01-17T06:14:59.231Z,98432.27
2023-01-17T06:17:26.127Z,98433.98
2023-01-17T06:19:53.106Z,98440.82
2023-01-17T06:22:20.132Z,98450.55
2023-01-17T06:24:47.089Z,98451.23
2023-01-17T06:27:14.031Z,98452.85
2023-01-17T06:29:41.088Z,98452.26
2023-01-17T06:32:08.235Z,98446.84
2023-01-17T06:34:35.180Z,98447.96
2023-01-17T06:37:02.033Z,98452.46
2023-01-17T06:39:28.905Z,98451.05
2023-01-17T06:41:56.124Z,98451.63
2023-01-17T06:44:23.185Z,98456.33
2023-01-17T06:46:50.152Z,98454.52
2023-01-17T06:49:17.070Z,98462.15
2023-01-17T06:51:43.960Z,98459.79
2023-01-17T06:54:10.842Z,98457.47
2023-01-17T06:56:37.804Z,98457.89
2023-01-17T07:01:56.272Z,98454.38
2023-01-17T07:04:23.223Z,98450.61
2023-01-17T07:06:50.172Z,98450.28
2023-01-17T07:09:17.226Z,98449.15
2023-01-17T07:11:45.607Z,98450.19
2023-01-17T07:14:13.384Z,98447.44
2023-01-17T07:16:40.890Z,98446.14
2023-01-17T07:19:07.874Z,98449.95
2023-01-17T07:21:34.818Z,98450.12
2023-01-17T07:24:01.770Z,98450.74
2023-01-17T07:26:28.714Z,98449.92
2023-01-17T07:28:55.774Z,98447.36
2023-01-17T07:31:22.668Z,98449.17
2023-01-17T07:33:49.586Z,98446.48
2023-01-17T07:36:16.505Z,98445.84
2023-01-17T07:38:45.024Z,98443.71
2023-01-17T07:41:12.035Z,98445.04
2023-01-17T07:43:39.284Z,98439.31
2023-01-17T07:46:07.009Z,98438.98
2023-01-17T07:48:34.000Z,98434.79
2023-01-17T07:51:01.387Z,98430.63
2023-01-17T07:53:29.859Z,98436.66
2023-01-17T07:56:01.754Z,98436.73
2023-01-17T07:58:28.976Z,98439.83
2023-01-17T08:01:04.596Z,98440.23
2023-01-17T08:03:35.355Z,98435.25
2023-01-17T08:06:02.700Z,98439.06
2023-01-17T08:08:29.764Z,98440.14
2023-01-17T08:10:56.704Z,98434.67
2023-01-17T08:13:23.846Z,98439.64
2023-01-17T08:15:51.133Z,98433.14
2023-01-17T08:18:18.459Z,98435.66
2023-01-17T08:20:45.603Z,98435.65
2023-01-17T08:23:12.762Z,98429.66
2023-01-17T08:25:40.028Z,98432.46
2023-01-17T08:28:07.060Z,98430.06
2023-01-17T08:30:34.835Z,98428.37
2023-01-17T08:33:01.987Z,98424.24
2023-01-17T08:35:29.133Z,98420.42
2023-01-17T08:37:56.539Z,98419.40
2023-01-17T08:40:23.708Z,98413.19
2023-01-17T08:42:55.455Z,98413.11
2023-01-17T08:45:22.351Z,98407.32
2023-01-17T08:47:49.604Z,98404.99
2023-01-17T08:50:20.734Z,98403.85
2023-01-17T08:52:50.799Z,98399.41
2023-01-17T08:55:17.960Z,98398.39
2023-01-17T08:57:45.066Z,98394.08
2023-01-17T09:00:16.233Z,98392.11
2023-01-17T09:02:43.101Z,98385.52
2023-01-17T09:05:10.310Z,98376.30
2023-01-17T09:07:37.389Z,98378.34
2023-01-17T09:10:05.322Z,98373.49
2023-01-17T09:12:33.084Z,98370.64
2023-01-17T09:15:01.012Z,98369.41
2023-01-17T09:17:28.014Z,98363.73
2023-01-17T09:19:54.943Z,98364.15
2023-01-17T13:46:20.450Z,98194.53
2023-01-17T13:48:49.470Z,98197.77
2023-01-17T13:51:19.969Z,98199.86
2023-01-17T13:53:47.507Z,98196.67
2023-01-17T13:56:30.048Z,98193.31
2023-01-17T13:59:02.219Z,98193.63
2023-01-17T14:01:32.620Z,98189.32
2023-01-17T14:03:59.611Z,98184.14
2023-01-17T14:06:40.839Z,98182.50
2023-01-17T14:09:19.148Z,98181.25
2023-01-17T14:12:10.713Z,98175.55
2023-01-17T14:14:41.021Z,98175.98
2023-01-17T14:17:29.389Z,98172.77
2023-01-17T14:20:01.323Z,98175.31
2023-01-17T14:22:29.741Z,98173.77
2023-01-17T14:24:57.702Z,98174.75
2023-01-17T14:27:25.064Z,98179.18
2023-01-17T14:29:59.253Z,98183.64
2023-01-17T14:32:31.875Z,98186.75
2023-01-17T14:34:59.011Z,98189.40
2023-01-17T14:37:32.272Z,98192.23
2023-01-17T14:39:59.911Z,98190.20
2023-01-17T14:42:29.016Z,98182.67
2023-01-17T14:45:09.135Z,98184.23
2023-01-17T14:47:39.417Z,98182.66
2023-01-17T14:50:37.107Z,98179.22
2023-01-17T14:53:13.413Z,98171.63
2023-01-17T14:55:57.341Z,98173.52
2023-01-17T14:58:34.425Z,98169.21
2023-01-17T15:01:03.386Z,98163.23
2023-01-17T15:03:32.414Z,98163.55
2023-01-17T15:06:22.884Z,98161.27
2023-01-17T15:08:50.048Z,98163.70
2023-01-17T15:11:25.697Z,98167.21
2023-01-17T15:13:55.036Z,98166.09
2023-01-17T15:16:24.632Z,98182.56
2023-01-17T15:18:52.812Z,98181.77
2023-01-17T15:21:35.716Z,98185.71
2023-01-17T15:24:07.065Z,98181.16
2023-01-17T15:26:34.902Z,98181.14
2023-01-17T15:29:12.546Z,98176.91
2023-01-17T15:31:39.390Z,98177.95
2023-01-17T15:34:07.438Z,98178.11
2023-01-17T15:36:34.504Z,98174.77
2023-01-17T15:39:30.403Z,98173.87
2023-01-17T15:41:59.320Z,98168.55
2023-01-17T15:44:47.432Z,98165.67
2023-01-17T15:47:32.314Z,98165.90
2023-01-17T15:50:00.795Z,98173.39
2023-01-17T15:52:28.050Z,98182.36
2023-01-17T15:55:13.849Z,98183.41
2023-01-17T15:57:40.995Z,98185.11
2023-01-17T16:00:18.594Z,98186.70
2023-01-17T16:02:46.422Z,98182.69
2023-01-17T16:05:23.124Z,98177.72
2023-01-17T16:07:54.173Z,98173.03
2023-01-17T16:10:23.231Z,98177.94
2023-01-17T16:12:52.866Z,98174.31
2023-01-17T16:15:26.254Z,98179.36
2023-01-17T16:17:57.888Z,98188.44
2023-01-17T16:20:34.860Z,98184.77
2023-01-17T16:23:02.718Z,98188.56
2023-01-17T16:25:32.625Z,98194.95
2023-01-17T16:27:59.863Z,98202.23
2023-01-17T16:30:26.826Z,98205.39
2023-01-17T16:32:53.746Z,98205.38
2023-01-17T16:35:25.574Z,98207.06
2023-01-17T16:37:56.564Z,98205.30
2023-01-17T16:40:25.148Z,98201.61
2023-01-17T16:42:52.038Z,98203.61
2023-01-17T16:45:19.108Z,98208.56
2023-01-17T16:47:47.032Z,98205.34
2023-01-17T16:50:15.541Z,98209.29
2023-01-17T16:52:42.609Z,98214.09
2023-01-17T16:55:12.390Z,98221.57
2023-01-17T16:57:39.396Z,98222.99
2023-01-17T17:00:10.289Z,98234.13
2023-01-17T17:02:39.197Z,98242.23
2023-01-17T17:05:10.391Z,98235.91
2023-01-17T17:07:43.005Z,98228.29
2023-01-17T17:10:10.966Z,98235.47
2023-01-17T17:12:37.841Z,98244.05
2023-01-17T17:15:05.872Z,98239.52
2023-01-17T17:17:40.549Z,98237.88
2023-01-17T17:20:12.642Z,98245.30
2023-01-17T17:44:38.722Z,98264.96
2023-01-17T17:47:05.694Z,98269.57
2023-01-17T17:49:36.089Z,98265.16
2023-01-17T17:52:04.745Z,98271.38
2023-01-17T17:54:31.702Z,98269.11
2023-01-17T17:56:58.587Z,98270.52
2023-01-17T17:59:25.443Z,98279.84
2023-01-17T18:01:52.549Z,98277.36
2023-01-17T18:04:19.831Z,98277.05
2023-01-17T18:06:46.782Z,98280.30
2023-01-17T18:09:13.833Z,98282.23
2023-01-17T18:11:41.779Z,98284.85
2023-01-17T18:14:12.002Z,98290.10
2023-01-17T18:16:41.677Z,98293.69
2023-01-17T18:19:12.475Z,98289.02
2023-01-17T18:21:39.741Z,98284.58
2023-01-17T18:24:09.452Z,98285.70
2023-01-17T18:26:41.832Z,98285.31
2023-01-17T18:29:09.855Z,98281.13
2023-01-17T18:31:36.996Z,98290.00
2023-01-17T18:34:05.463Z,98300.35
2023-01-17T18:36:36.103Z,98310.73
2023-01-17T18:39:30.472Z,98310.33
2023-01-17T18:41:58.155Z,98313.51
2023-01-17T18:44:27.008Z,98320.12
2023-01-17T18:47:22.522Z,98317.73
2023-01-17T18:49:54.008Z,98320.83
2023-01-17T18:52:21.223Z,98322.73
2023-01-17T18:54:48.479Z,98329.61
2023-01-17T18:57:15.520Z,98333.77
2023-01-17T18:59:45.747Z,98339.56
2023-01-17T19:02:12.800Z,98335.64
2023-01-17T19:04:42.767Z,98329.67
2023-01-17T19:07:11.771Z,98334.98
2023-01-17T19:09:39.485Z,98343.06
2023-01-17T19:12:07.684Z,98348.08
2023-01-17T19:14:34.595Z,98355.36
2023-01-17T19:17:01.908Z,98351.58
2023-01-17T19:19:29.104Z,98349.65
2023-01-17T19:21:57.107Z,98353.94
2023-01-17T19:24:24.333Z,98364.63
2023-01-17T19:26:54.241Z,98370.60
2023-01-17T19:29:22.689Z,98370.08
2023-01-17T19:31:49.922Z,98374.15
2023-01-17T19:34:20.046Z,98376.48
2023-01-17T19:36:50.657Z,98375.63
2023-01-17T19:39:18.426Z,98370.59
2023-01-17T19:41:45.912Z,98371.60
2023-01-17T19:44:13.913Z,98375.95
2023-01-17T19:46:40.952Z,98376.21
2023-01-17T19:49:08.667Z,98375.71
2023-01-17T19:51:36.439Z,98374.45
2023-01-17T19:54:04.371Z,98372.50
2023-01-17T19:56:31.604Z,98379.02
2023-01-17T19:59:01.843Z,98369.84
2023-01-17T20:01:31.670Z,98356.29
2023-01-17T20:03:59.154Z,98356.98
2023-01-17T20:06:29.134Z,98363.17
2023-01-17T20:08:56.564Z,98362.91
2023-01-17T20:11:24.208Z,98365.50
2023-01-17T20:13:54.265Z,98362.27
2023-01-17T20:16:24.790Z,98366.80
2023-01-17T20:18:51.991Z,98369.91
2023-01-17T20:21:23.970Z,98367.29
2023-01-17T20:23:51.782Z,98371.61
2023-01-17T20:26:21.215Z,98377.42
2023-01-17T20:28:49.108Z,98381.73
2023-01-17T20:31:26.416Z,98387.31
2023-01-17T20:33:54.694Z,98389.14
2023-01-17T20:36:26.943Z,98392.67
2023-01-17T20:38:54.805Z,98397.20
2023-01-17T20:41:32.207Z,98396.93
2023-01-17T20:44:00.165Z,98394.19
2023-01-17T20:46:35.687Z,98384.38
2023-01-17T20:49:05.569Z,98382.42
2023-01-17T20:51:38.611Z,98388.98
2023-01-17T20:54:06.533Z,98395.59
2023-01-17T20:56:37.843Z,98394.60
2023-01-17T20:59:09.649Z,98400.59
2023-01-17T21:01:37.376Z,98402.32
2023-01-17T21:04:04.930Z,98410.44
2023-01-17T21:06:32.075Z,98417.20
2023-01-17T21:09:00.150Z,98420.66
2023-01-17T21:11:30.780Z,98421.73
2023-01-17T21:14:00.589Z,98424.63
2023-01-17T21:16:28.240Z,98418.99
2023-01-17T21:18:55.308Z,98414.57
2023-01-17T21:21:23.762Z,98413.02
2023-01-17T21:23:51.708Z,98411.45
2023-01-17T21:26:19.643Z,98417.16
2023-01-17T21:28:47.397Z,98410.96
2023-01-17T21:31:25.443Z,98401.98
2023-01-17T21:33:59.370Z,98398.32
2023-01-17T21:36:28.507Z,98403.16
2023-01-17T21:38:57.300Z,98402.95
2023-01-17T21:41:26.650Z,98396.65
2023-01-17T21:43:54.670Z,98389.46
2023-01-17T21:46:22.250Z,98386.35
2023-01-17T21:48:49.277Z,98386.27
2023-01-17T21:51:16.566Z,98387.80
2023-01-17T21:53:43.784Z,98383.73
2023-01-17T21:56:31.006Z,98386.34
2023-01-17T21:58:58.365Z,98383.80
2023-01-17T22:01:30.444Z,98385.27
2023-01-17T22:04:03.618Z,98393.34
2023-01-17T22:06:32.226Z,98397.75
2023-01-17T22:08:59.492Z,98407.59
2023-01-17T22:11:26.923Z,98401.88
2023-01-17T22:13:59.042Z,98402.29
2023-01-17T22:16:26.863Z,98398.96
2023-01-17T22:18:54.052Z,98395.83
2023-01-17T22:21:24.810Z,98393.19
2023-01-17T22:23:53.859Z,98397.63
2023-01-17T22:26:22.955Z,98397.88
2023-01-17T22:28:50.094Z,98397.38
2023-01-17T22:31:22.923Z,98399.66
2023-01-17T22:33:55.152Z,98398.92
2023-01-17T22:36:22.497Z,98403.30
2023-01-17T22:38:50.527Z,98399.63
2023-01-17T22:41:20.387Z,98397.20
2023-01-17T22:43:48.931Z,98393.73
2023-01-17T22:46:19.272Z,98397.08
2023-01-17T22:48:46.362Z,98399.27
2023-01-17T22:51:14.762Z,98395.98
2023-01-17T22:53:52.765Z,98392.73
2023-01-17T22:56:21.940Z,98395.07
2023-01-17T22:58:49.331Z,98397.15
2023-01-17T23:01:21.883Z,98400.23
2023-01-17T23:03:54.127Z,98401.85
2023-01-17T23:06:28.977Z,98403.79
2023-01-17T23:08:57.546Z,98401.70
2023-01-17T23:11:39.879Z,98399.31
2023-01-17T23:14:09.241Z,98403.76
2023-01-17T23:16:59.775Z,98407.19
2023-01-17T23:19:27.847Z,98405.79
2023-01-17T23:22:17.661Z,98405.73
2023-01-17T23:24:58.207Z,98407.00
2023-01-17T23:27:51.669Z,98409.71
2023-01-17T23:30:21.170Z,98415.35
2023-01-17T23:32:52.317Z,98413.38
2023-01-17T23:35:20.801Z,98416.81
2023-01-17T23:38:06.484Z,98415.05
2023-01-17T23:40:34.587Z,98412.73
2023-01-17T23:43:20.382Z,98423.08
2023-01-17T23:45:47.366Z,98425.91
2023-01-17T23:48:14.447Z,98429.44
2023-01-17T23:50:42.852Z,98434.23
2023-01-17T23:53:12.159Z,98435.31
2023-01-17T23:55:40.815Z,98439.67
2023-01-17T23:58:11.463Z,98440.38
